sensor_id;sensor_type;location;lat;lon;timestamp;P1;durP1;ratioP1;P2;durP2;ratioP2
15553;SDS011;7878;44.632;10.942;2023-03-11T00:01:52;1.10;;;0.70;;
15553;SDS011;7878;44.632;10.942;2023-03-11T00:04:18;2.20;;;0.93;;
15553;SDS011;7878;44.632;10.942;2023-03-11T00:06:43;3.13;;;1.43;;
15553;SDS011;7878;44.632;10.942;2023-03-11T00:09:09;6.37;;;1.10;;
15553;SDS011;7878;44.632;10.942;2023-03-11T00:11:35;3.23;;;1.13;;
15553;SDS011;7878;44.632;10.942;2023-03-11T00:14:00;7.57;;;1.20;;
15553;SDS011;7878;44.632;10.942;2023-03-11T00:16:26;2.67;;;1.00;;
15553;SDS011;7878;44.632;10.942;2023-03-11T00:18:51;2.73;;;1.20;;
15553;SDS011;7878;44.632;10.942;2023-03-11T00:21:19;4.03;;;1.23;;
15553;SDS011;7878;44.632;10.942;2023-03-11T00:23:45;3.53;;;1.75;;
15553;SDS011;7878;44.632;10.942;2023-03-11T00:26:11;7.57;;;1.40;;
15553;SDS011;7878;44.632;10.942;2023-03-11T00:28:37;2.87;;;1.00;;
15553;SDS011;7878;44.632;10.942;2023-03-11T00:31:03;2.65;;;1.40;;
15553;SDS011;7878;44.632;10.942;2023-03-11T00:33:29;5.93;;;1.30;;
15553;SDS011;7878;44.632;10.942;2023-03-11T00:35:55;4.00;;;1.30;;
15553;SDS011;7878;44.632;10.942;2023-03-11T00:38:20;2.87;;;1.50;;
15553;SDS011;7878;44.632;10.942;2023-03-11T00:40:47;5.43;;;1.50;;
15553;SDS011;7878;44.632;10.942;2023-03-11T00:43:13;2.40;;;1.23;;
15553;SDS011;7878;44.632;10.942;2023-03-11T00:45:40;2.73;;;1.00;;
15553;SDS011;7878;44.632;10.942;2023-03-11T00:48:06;4.37;;;1.63;;
15553;SDS011;7878;44.632;10.942;2023-03-11T00:50:32;1.73;;;1.10;;
15553;SDS011;7878;44.632;10.942;2023-03-11T00:53:00;4.23;;;1.20;;
15553;SDS011;7878;44.632;10.942;2023-03-11T00:55:31;3.90;;;1.47;;
15553;SDS011;7878;44.632;10.942;2023-03-11T00:57:59;4.07;;;1.40;;
15553;SDS011;7878;44.632;10.942;2023-03-11T01:00:26;2.07;;;1.20;;
15553;SDS011;7878;44.632;10.942;2023-03-11T01:02:54;1.90;;;1.10;;
15553;SDS011;7878;44.632;10.942;2023-03-11T01:05:21;5.87;;;1.40;;
15553;SDS011;7878;44.632;10.942;2023-03-11T01:07:49;4.67;;;1.80;;
15553;SDS011;7878;44.632;10.942;2023-03-11T01:10:15;3.20;;;1.43;;
15553;SDS011;7878;44.632;10.942;2023-03-11T01:12:41;7.32;;;1.88;;
15553;SDS011;7878;44.632;10.942;2023-03-11T01:15:07;3.27;;;1.17;;
15553;SDS011;7878;44.632;10.942;2023-03-11T01:17:38;2.83;;;1.07;;
15553;SDS011;7878;44.632;10.942;2023-03-11T01:20:04;1.60;;;1.00;;
15553;SDS011;7878;44.632;10.942;2023-03-11T01:22:32;1.67;;;1.07;;
15553;SDS011;7878;44.632;10.942;2023-03-11T01:24:58;2.67;;;1.20;;
15553;SDS011;7878;44.632;10.942;2023-03-11T01:27:23;4.07;;;1.50;;
15553;SDS011;7878;44.632;10.942;2023-03-11T01:29:49;3.70;;;1.13;;
15553;SDS011;7878;44.632;10.942;2023-03-11T01:32:15;2.73;;;1.07;;
15553;SDS011;7878;44.632;10.942;2023-03-11T01:34:40;3.20;;;0.93;;
15553;SDS011;7878;44.632;10.942;2023-03-11T01:37:06;3.53;;;1.23;;
15553;SDS011;7878;44.632;10.942;2023-03-11T01:39:32;4.17;;;0.90;;
15553;SDS011;7878;44.632;10.942;2023-03-11T01:41:57;3.90;;;1.17;;
15553;SDS011;7878;44.632;10.942;2023-03-11T01:44:23;2.10;;;1.30;;
15553;SDS011;7878;44.632;10.942;2023-03-11T01:49:18;2.43;;;1.10;;
15553;SDS011;7878;44.632;10.942;2023-03-11T01:51:45;1.73;;;1.00;;
15553;SDS011;7878;44.632;10.942;2023-03-11T01:56:42;3.33;;;1.10;;
15553;SDS011;7878;44.632;10.942;2023-03-11T01:59:10;2.13;;;0.73;;
15553;SDS011;7878;44.632;10.942;2023-03-11T02:01:53;2.50;;;1.00;;
15553;SDS011;7878;44.632;10.942;2023-03-11T02:04:27;3.20;;;1.07;;
15553;SDS011;7878;44.632;10.942;2023-03-11T02:06:54;3.60;;;1.20;;
15553;SDS011;7878;44.632;10.942;2023-03-11T02:09:20;1.97;;;1.03;;
15553;SDS011;7878;44.632;10.942;2023-03-11T02:11:48;1.97;;;0.83;;
15553;SDS011;7878;44.632;10.942;2023-03-11T02:14:14;3.60;;;1.17;;
15553;SDS011;7878;44.632;10.942;2023-03-11T02:16:41;4.93;;;1.00;;
15553;SDS011;7878;44.632;10.942;2023-03-11T02:19:10;2.70;;;1.00;;
15553;SDS011;7878;44.632;10.942;2023-03-11T02:21:44;2.70;;;0.97;;
15553;SDS011;7878;44.632;10.942;2023-03-11T02:29:25;3.03;;;0.93;;
15553;SDS011;7878;44.632;10.942;2023-03-11T02:31:52;3.20;;;0.73;;
15553;SDS011;7878;44.632;10.942;2023-03-11T02:34:24;2.77;;;0.70;;
15553;SDS011;7878;44.632;10.942;2023-03-11T02:36:52;2.97;;;0.63;;
15553;SDS011;7878;44.632;10.942;2023-03-11T02:39:31;1.33;;;0.70;;
15553;SDS011;7878;44.632;10.942;2023-03-11T02:42:03;2.73;;;1.07;;
15553;SDS011;7878;44.632;10.942;2023-03-11T02:44:34;2.30;;;0.80;;
15553;SDS011;7878;44.632;10.942;2023-03-11T02:47:00;1.40;;;0.73;;
15553;SDS011;7878;44.632;10.942;2023-03-11T02:49:26;1.10;;;0.67;;
15553;SDS011;7878;44.632;10.942;2023-03-11T02:51:53;1.60;;;0.93;;
15553;SDS011;7878;44.632;10.942;2023-03-11T02:54:19;3.67;;;0.70;;
15553;SDS011;7878;44.632;10.942;2023-03-11T02:56:44;0.60;;;0.60;;
15553;SDS011;7878;44.632;10.942;2023-03-11T02:59:10;1.40;;;0.60;;
15553;SDS011;7878;44.632;10.942;2023-03-11T03:01:36;0.70;;;0.60;;
15553;SDS011;7878;44.632;10.942;2023-03-11T03:04:01;2.30;;;0.40;;
15553;SDS011;7878;44.632;10.942;2023-03-11T03:06:28;0.87;;;0.60;;
15553;SDS011;7878;44.632;10.942;2023-03-11T03:14:25;2.20;;;1.10;;
15553;SDS011;7878;44.632;10.942;2023-03-11T03:16:51;2.60;;;1.00;;
15553;SDS011;7878;44.632;10.942;2023-03-11T03:19:17;7.53;;;1.17;;
15553;SDS011;7878;44.632;10.942;2023-03-11T03:21:43;4.53;;;1.77;;
15553;SDS011;7878;44.632;10.942;2023-03-11T03:24:08;4.17;;;1.10;;
15553;SDS011;7878;44.632;10.942;2023-03-11T03:26:34;2.43;;;1.20;;
15553;SDS011;7878;44.632;10.942;2023-03-11T03:29:00;5.67;;;1.50;;
15553;SDS011;7878;44.632;10.942;2023-03-11T03:31:26;4.00;;;1.20;;
15553;SDS011;7878;44.632;10.942;2023-03-11T03:33:52;2.30;;;1.57;;
15553;SDS011;7878;44.632;10.942;2023-03-11T03:36:17;2.70;;;1.10;;
15553;SDS011;7878;44.632;10.942;2023-03-11T03:38:43;3.03;;;1.67;;
15553;SDS011;7878;44.632;10.942;2023-03-11T03:41:09;4.63;;;1.07;;
15553;SDS011;7878;44.632;10.942;2023-03-11T03:43:38;3.33;;;0.90;;
15553;SDS011;7878;44.632;10.942;2023-03-11T03:46:04;3.60;;;1.03;;
15553;SDS011;7878;44.632;10.942;2023-03-11T03:48:30;1.73;;;0.80;;
15553;SDS011;7878;44.632;10.942;2023-03-11T03:50:56;3.40;;;1.03;;
15553;SDS011;7878;44.632;10.942;2023-03-11T03:53:28;5.23;;;1.33;;
15553;SDS011;7878;44.632;10.942;2023-03-11T03:55:54;2.53;;;1.10;;
15553;SDS011;7878;44.632;10.942;2023-03-11T03:58:20;2.20;;;1.30;;
15553;SDS011;7878;44.632;10.942;2023-03-11T04:00:45;2.03;;;1.47;;
15553;SDS011;7878;44.632;10.942;2023-03-11T04:03:11;2.10;;;1.33;;
15553;SDS011;7878;44.632;10.942;2023-03-11T04:05:37;1.43;;;0.90;;
15553;SDS011;7878;44.632;10.942;2023-03-11T04:08:02;2.93;;;1.20;;
15553;SDS011;7878;44.632;10.942;2023-03-11T04:10:28;3.63;;;1.47;;
15553;SDS011;7878;44.632;10.942;2023-03-11T04:12:54;3.87;;;1.60;;
15553;SDS011;7878;44.632;10.942;2023-03-11T04:15:19;3.10;;;1.40;;
15553;SDS011;7878;44.632;10.942;2023-03-11T04:17:45;3.77;;;1.47;;
15553;SDS011;7878;44.632;10.942;2023-03-11T04:20:11;5.03;;;1.63;;
15553;SDS011;7878;44.632;10.942;2023-03-11T04:22:36;4.57;;;1.33;;
15553;SDS011;7878;44.632;10.942;2023-03-11T04:25:02;1.77;;;1.00;;
15553;SDS011;7878;44.632;10.942;2023-03-11T04:27:28;3.00;;;1.27;;
15553;SDS011;7878;44.632;10.942;2023-03-11T04:29:54;2.40;;;1.00;;
15553;SDS011;7878;44.632;10.942;2023-03-11T04:32:20;2.23;;;1.00;;
15553;SDS011;7878;44.632;10.942;2023-03-11T04:34:47;3.27;;;1.03;;
15553;SDS011;7878;44.632;10.942;2023-03-11T04:37:12;1.93;;;0.80;;
15553;SDS011;7878;44.632;10.942;2023-03-11T04:39:38;1.17;;;0.90;;
15553;SDS011;7878;44.632;10.942;2023-03-11T04:42:04;1.83;;;0.90;;
15553;SDS011;7878;44.632;10.942;2023-03-11T04:44:29;2.13;;;0.87;;
15553;SDS011;7878;44.632;10.942;2023-03-11T04:46:55;1.90;;;1.10;;
15553;SDS011;7878;44.632;10.942;2023-03-11T04:49:21;3.47;;;0.97;;
15553;SDS011;7878;44.632;10.942;2023-03-11T04:51:47;5.73;;;1.37;;
15553;SDS011;7878;44.632;10.942;2023-03-11T04:54:12;0.87;;;0.70;;
15553;SDS011;7878;44.632;10.942;2023-03-11T04:56:38;1.30;;;0.90;;
15553;SDS011;7878;44.632;10.942;2023-03-11T04:59:04;4.40;;;0.80;;
15553;SDS011;7878;44.632;10.942;2023-03-11T05:01:29;1.23;;;0.70;;
15553;SDS011;7878;44.632;10.942;2023-03-11T05:03:55;2.23;;;0.80;;
15553;SDS011;7878;44.632;10.942;2023-03-11T05:06:21;1.03;;;0.70;;
15553;SDS011;7878;44.632;10.942;2023-03-11T05:08:46;2.20;;;0.60;;
15553;SDS011;7878;44.632;10.942;2023-03-11T05:11:12;2.77;;;0.83;;
15553;SDS011;7878;44.632;10.942;2023-03-11T05:13:38;0.80;;;0.70;;
15553;SDS011;7878;44.632;10.942;2023-03-11T05:16:04;2.50;;;0.90;;
15553;SDS011;7878;44.632;10.942;2023-03-11T05:18:29;0.60;;;0.50;;
15553;SDS011;7878;44.632;10.942;2023-03-11T05:20:56;1.63;;;0.80;;
15553;SDS011;7878;44.632;10.942;2023-03-11T05:23:22;3.70;;;0.90;;
15553;SDS011;7878;44.632;10.942;2023-03-11T05:25:48;2.93;;;0.80;;
15553;SDS011;7878;44.632;10.942;2023-03-11T05:28:13;1.87;;;0.70;;
15553;SDS011;7878;44.632;10.942;2023-03-11T05:30:39;2.20;;;0.70;;
15553;SDS011;7878;44.632;10.942;2023-03-11T05:33:05;2.00;;;0.70;;
15553;SDS011;7878;44.632;10.942;2023-03-11T05:35:30;1.43;;;0.60;;
15553;SDS011;7878;44.632;10.942;2023-03-11T05:37:56;1.93;;;1.00;;
15553;SDS011;7878;44.632;10.942;2023-03-11T05:40:21;4.40;;;1.00;;
15553;SDS011;7878;44.632;10.942;2023-03-11T05:42:47;1.97;;;0.70;;
15553;SDS011;7878;44.632;10.942;2023-03-11T05:45:13;1.53;;;0.70;;
15553;SDS011;7878;44.632;10.942;2023-03-11T05:47:39;3.70;;;0.80;;
15553;SDS011;7878;44.632;10.942;2023-03-11T05:50:06;1.37;;;0.90;;
15553;SDS011;7878;44.632;10.942;2023-03-11T05:52:32;7.23;;;0.80;;
15553;SDS011;7878;44.632;10.942;2023-03-11T05:54:58;2.23;;;0.80;;
15553;SDS011;7878;44.632;10.942;2023-03-11T05:57:24;3.93;;;1.20;;
15553;SDS011;7878;44.632;10.942;2023-03-11T05:59:49;2.33;;;1.00;;
15553;SDS011;7878;44.632;10.942;2023-03-11T06:02:15;3.03;;;1.00;;
15553;SDS011;7878;44.632;10.942;2023-03-11T06:04:41;5.90;;;1.27;;
15553;SDS011;7878;44.632;10.942;2023-03-11T06:07:06;2.50;;;1.03;;
15553;SDS011;7878;44.632;10.942;2023-03-11T06:09:32;4.90;;;1.30;;
15553;SDS011;7878;44.632;10.942;2023-03-11T06:12:01;5.30;;;1.33;;
15553;SDS011;7878;44.632;10.942;2023-03-11T06:14:27;1.77;;;1.47;;
15553;SDS011;7878;44.632;10.942;2023-03-11T06:16:55;4.43;;;1.53;;
15553;SDS011;7878;44.632;10.942;2023-03-11T06:19:22;10.23;;;1.60;;
15553;SDS011;7878;44.632;10.942;2023-03-11T06:21:48;3.60;;;1.10;;
15553;SDS011;7878;44.632;10.942;2023-03-11T06:24:14;1.87;;;0.93;;
15553;SDS011;7878;44.632;10.942;2023-03-11T06:26:40;9.63;;;1.57;;
15553;SDS011;7878;44.632;10.942;2023-03-11T06:29:06;9.13;;;1.60;;
15553;SDS011;7878;44.632;10.942;2023-03-11T06:31:35;4.20;;;1.27;;
15553;SDS011;7878;44.632;10.942;2023-03-11T06:34:01;7.23;;;1.30;;
15553;SDS011;7878;44.632;10.942;2023-03-11T06:36:28;9.50;;;1.73;;
15553;SDS011;7878;44.632;10.942;2023-03-11T06:38:53;6.47;;;1.50;;
15553;SDS011;7878;44.632;10.942;2023-03-11T06:41:19;11.23;;;1.73;;
15553;SDS011;7878;44.632;10.942;2023-03-11T06:43:45;3.93;;;1.63;;
15553;SDS011;7878;44.632;10.942;2023-03-11T06:46:12;5.80;;;2.00;;
15553;SDS011;7878;44.632;10.942;2023-03-11T06:48:42;3.53;;;1.60;;
15553;SDS011;7878;44.632;10.942;2023-03-11T06:51:09;8.17;;;1.80;;
15553;SDS011;7878;44.632;10.942;2023-03-11T06:53:35;3.83;;;1.40;;
15553;SDS011;7878;44.632;10.942;2023-03-11T06:58:30;10.93;;;1.97;;
15553;SDS011;7878;44.632;10.942;2023-03-11T07:01:04;5.10;;;1.60;;
15553;SDS011;7878;44.632;10.942;2023-03-11T07:03:30;6.20;;;1.60;;
15553;SDS011;7878;44.632;10.942;2023-03-11T07:05:56;6.50;;;2.30;;
15553;SDS011;7878;44.632;10.942;2023-03-11T07:08:22;6.50;;;1.67;;
15553;SDS011;7878;44.632;10.942;2023-03-11T07:11:01;6.90;;;2.37;;
15553;SDS011;7878;44.632;10.942;2023-03-11T07:13:32;2.67;;;1.40;;
15553;SDS011;7878;44.632;10.942;2023-03-11T07:15:59;8.13;;;1.90;;
15553;SDS011;7878;44.632;10.942;2023-03-11T07:18:30;6.87;;;2.67;;
15553;SDS011;7878;44.632;10.942;2023-03-11T07:20:56;6.77;;;1.90;;
15553;SDS011;7878;44.632;10.942;2023-03-11T07:23:22;8.50;;;1.80;;
15553;SDS011;7878;44.632;10.942;2023-03-11T07:25:47;10.93;;;2.37;;
15553;SDS011;7878;44.632;10.942;2023-03-11T07:28:13;5.93;;;2.03;;
15553;SDS011;7878;44.632;10.942;2023-03-11T07:30:39;7.87;;;1.80;;
15553;SDS011;7878;44.632;10.942;2023-03-11T07:33:05;4.53;;;2.17;;
15553;SDS011;7878;44.632;10.942;2023-03-11T07:35:31;11.23;;;2.40;;
15553;SDS011;7878;44.632;10.942;2023-03-11T07:37:59;7.33;;;2.30;;
15553;SDS011;7878;44.632;10.942;2023-03-11T07:40:24;5.10;;;1.77;;
15553;SDS011;7878;44.632;10.942;2023-03-11T07:42:50;8.30;;;2.13;;
15553;SDS011;7878;44.632;10.942;2023-03-11T07:45:16;9.00;;;2.20;;
15553;SDS011;7878;44.632;10.942;2023-03-11T07:47:41;3.80;;;1.60;;
15553;SDS011;7878;44.632;10.942;2023-03-11T07:50:07;3.47;;;1.80;;
15553;SDS011;7878;44.632;10.942;2023-03-11T07:52:33;8.70;;;1.93;;
15553;SDS011;7878;44.632;10.942;2023-03-11T07:54:59;6.45;;;1.45;;
15553;SDS011;7878;44.632;10.942;2023-03-11T07:57:25;9.10;;;1.60;;
15553;SDS011;7878;44.632;10.942;2023-03-11T07:59:51;9.20;;;2.00;;
15553;SDS011;7878;44.632;10.942;2023-03-11T08:02:16;4.72;;;1.52;;
15553;SDS011;7878;44.632;10.942;2023-03-11T08:04:42;4.55;;;1.45;;
15553;SDS011;7878;44.632;10.942;2023-03-11T08:07:07;3.87;;;1.50;;
15553;SDS011;7878;44.632;10.942;2023-03-11T08:09:33;5.65;;;1.30;;
15553;SDS011;7878;44.632;10.942;2023-03-11T08:11:59;1.97;;;1.00;;
15553;SDS011;7878;44.632;10.942;2023-03-11T08:14:25;6.40;;;1.23;;
15553;SDS011;7878;44.632;10.942;2023-03-11T08:16:51;1.20;;;0.93;;
15553;SDS011;7878;44.632;10.942;2023-03-11T08:19:16;1.98;;;1.05;;
15553;SDS011;7878;44.632;10.942;2023-03-11T08:21:42;3.40;;;0.90;;
15553;SDS011;7878;44.632;10.942;2023-03-11T08:24:09;5.43;;;1.35;;
15553;SDS011;7878;44.632;10.942;2023-03-11T08:26:36;2.97;;;1.05;;
15553;SDS011;7878;44.632;10.942;2023-03-11T08:29:02;2.30;;;1.10;;
15553;SDS011;7878;44.632;10.942;2023-03-11T08:31:29;6.18;;;1.20;;
15553;SDS011;7878;44.632;10.942;2023-03-11T08:33:57;6.70;;;1.40;;
15553;SDS011;7878;44.632;10.942;2023-03-11T08:36:25;8.45;;;1.38;;
15553;SDS011;7878;44.632;10.942;2023-03-11T08:38:51;3.70;;;1.05;;
15553;SDS011;7878;44.632;10.942;2023-03-11T08:41:17;5.38;;;1.45;;
15553;SDS011;7878;44.632;10.942;2023-03-11T08:43:43;3.60;;;1.30;;
15553;SDS011;7878;44.632;10.942;2023-03-11T08:46:12;2.50;;;1.10;;
15553;SDS011;7878;44.632;10.942;2023-03-11T08:48:45;4.30;;;1.08;;
15553;SDS011;7878;44.632;10.942;2023-03-11T08:51:11;1.88;;;0.98;;
15553;SDS011;7878;44.632;10.942;2023-03-11T08:53:38;2.38;;;1.27;;
15553;SDS011;7878;44.632;10.942;2023-03-11T08:56:04;8.23;;;1.45;;
15553;SDS011;7878;44.632;10.942;2023-03-11T08:58:30;3.90;;;1.38;;
15553;SDS011;7878;44.632;10.942;2023-03-11T09:00:56;4.22;;;1.77;;
15553;SDS011;7878;44.632;10.942;2023-03-11T09:03:22;2.97;;;1.27;;
15553;SDS011;7878;44.632;10.942;2023-03-11T09:05:47;3.17;;;1.58;;
15553;SDS011;7878;44.632;10.942;2023-03-11T09:08:13;4.95;;;1.45;;
15553;SDS011;7878;44.632;10.942;2023-03-11T09:10:39;4.28;;;1.40;;
15553;SDS011;7878;44.632;10.942;2023-03-11T09:13:05;7.95;;;1.42;;
15553;SDS011;7878;44.632;10.942;2023-03-11T09:15:31;4.55;;;1.60;;
15553;SDS011;7878;44.632;10.942;2023-03-11T09:17:56;2.65;;;1.50;;
15553;SDS011;7878;44.632;10.942;2023-03-11T09:20:23;3.13;;;1.52;;
15553;SDS011;7878;44.632;10.942;2023-03-11T09:22:49;3.47;;;1.40;;
15553;SDS011;7878;44.632;10.942;2023-03-11T09:25:15;3.03;;;1.15;;
15553;SDS011;7878;44.632;10.942;2023-03-11T09:27:40;3.13;;;1.15;;
15553;SDS011;7878;44.632;10.942;2023-03-11T09:30:07;4.28;;;1.40;;
15553;SDS011;7878;44.632;10.942;2023-03-11T09:32:33;1.38;;;1.10;;
15553;SDS011;7878;44.632;10.942;2023-03-11T09:34:59;2.30;;;1.13;;
15553;SDS011;7878;44.632;10.942;2023-03-11T09:37:25;1.92;;;0.90;;
15553;SDS011;7878;44.632;10.942;2023-03-11T09:39:51;3.95;;;1.13;;
15553;SDS011;7878;44.632;10.942;2023-03-11T09:42:22;2.33;;;1.02;;
15553;SDS011;7878;44.632;10.942;2023-03-11T09:51:11;2.17;;;1.30;;
15553;SDS011;7878;44.632;10.942;2023-03-11T09:53:45;7.32;;;1.30;;
15553;SDS011;7878;44.632;10.942;2023-03-11T09:56:17;1.95;;;1.10;;
15553;SDS011;7878;44.632;10.942;2023-03-11T10:03:53;3.30;;;1.15;;
15553;SDS011;7878;44.632;10.942;2023-03-11T10:06:24;4.22;;;1.23;;
15553;SDS011;7878;44.632;10.942;2023-03-11T10:09:06;1.52;;;1.27;;
15553;SDS011;7878;44.632;10.942;2023-03-11T10:20:33;2.67;;;1.60;;
15553;SDS011;7878;44.632;10.942;2023-03-11T10:23:21;1.42;;;1.20;;
15553;SDS011;7878;44.632;10.942;2023-03-11T10:26:02;4.82;;;1.50;;
15553;SDS011;7878;44.632;10.942;2023-03-11T10:28:34;5.03;;;1.95;;
15553;SDS011;7878;44.632;10.942;2023-03-11T10:33:55;3.88;;;1.40;;
15553;SDS011;7878;44.632;10.942;2023-03-11T10:36:38;1.65;;;1.33;;
15553;SDS011;7878;44.632;10.942;2023-03-11T10:39:28;4.35;;;1.48;;
15553;SDS011;7878;44.632;10.942;2023-03-11T10:41:56;2.22;;;1.60;;
15553;SDS011;7878;44.632;10.942;2023-03-11T10:46:59;3.30;;;1.85;;
15553;SDS011;7878;44.632;10.942;2023-03-11T10:49:25;2.03;;;1.83;;
15553;SDS011;7878;44.632;10.942;2023-03-11T10:51:52;2.67;;;1.52;;
15553;SDS011;7878;44.632;10.942;2023-03-11T10:54:23;5.53;;;2.10;;
15553;SDS011;7878;44.632;10.942;2023-03-11T10:56:53;2.78;;;1.73;;
15553;SDS011;7878;44.632;10.942;2023-03-11T10:59:24;4.75;;;1.90;;
15553;SDS011;7878;44.632;10.942;2023-03-11T11:02:00;1.95;;;1.70;;
15553;SDS011;7878;44.632;10.942;2023-03-11T11:04:46;1.73;;;1.52;;
15553;SDS011;7878;44.632;10.942;2023-03-11T11:07:19;11.95;;;2.95;;
15553;SDS011;7878;44.632;10.942;2023-03-11T11:12:57;2.65;;;1.83;;
15553;SDS011;7878;44.632;10.942;2023-03-11T11:17:53;1.80;;;1.70;;
15553;SDS011;7878;44.632;10.942;2023-03-11T11:20:22;2.50;;;1.52;;
15553;SDS011;7878;44.632;10.942;2023-03-11T11:23:00;1.60;;;1.50;;
15553;SDS011;7878;44.632;10.942;2023-03-11T11:25:29;3.60;;;1.50;;
15553;SDS011;7878;44.632;10.942;2023-03-11T11:28:02;2.42;;;1.48;;
15553;SDS011;7878;44.632;10.942;2023-03-11T11:30:51;1.70;;;1.60;;
15553;SDS011;7878;44.632;10.942;2023-03-11T11:36:10;2.65;;;1.60;;
15553;SDS011;7878;44.632;10.942;2023-03-11T11:38:38;8.90;;;2.00;;
15553;SDS011;7878;44.632;10.942;2023-03-11T11:41:04;1.70;;;1.55;;
15553;SDS011;7878;44.632;10.942;2023-03-11T11:43:45;2.60;;;2.13;;
15553;SDS011;7878;44.632;10.942;2023-03-11T11:46:16;3.05;;;1.80;;
15553;SDS011;7878;44.632;10.942;2023-03-11T11:51:29;1.90;;;1.80;;
15553;SDS011;7878;44.632;10.942;2023-03-11T11:56:54;1.77;;;1.50;;
15553;SDS011;7878;44.632;10.942;2023-03-11T11:59:21;2.45;;;1.75;;
15553;SDS011;7878;44.632;10.942;2023-03-11T12:01:49;2.17;;;1.70;;
15553;SDS011;7878;44.632;10.942;2023-03-11T12:04:31;2.30;;;1.98;;
15553;SDS011;7878;44.632;10.942;2023-03-11T12:15:37;1.77;;;1.40;;
15553;SDS011;7878;44.632;10.942;2023-03-11T12:18:21;2.47;;;1.77;;
15553;SDS011;7878;44.632;10.942;2023-03-11T12:20:54;4.35;;;1.75;;
15553;SDS011;7878;44.632;10.942;2023-03-11T12:23:27;2.45;;;2.25;;
15553;SDS011;7878;44.632;10.942;2023-03-11T12:26:14;2.72;;;1.40;;
15553;SDS011;7878;44.632;10.942;2023-03-11T12:28:54;2.05;;;1.25;;
15553;SDS011;7878;44.632;10.942;2023-03-11T12:31:22;1.42;;;1.33;;
15553;SDS011;7878;44.632;10.942;2023-03-11T12:33:57;1.55;;;1.45;;
15553;SDS011;7878;44.632;10.942;2023-03-11T12:44:35;0.88;;;0.88;;
15553;SDS011;7878;44.632;10.942;2023-03-11T12:49:54;3.92;;;1.10;;
15553;SDS011;7878;44.632;10.942;2023-03-11T12:52:52;1.20;;;1.10;;
15553;SDS011;7878;44.632;10.942;2023-03-11T12:55:29;1.60;;;1.30;;
15553;SDS011;7878;44.632;10.942;2023-03-11T12:58:00;2.65;;;1.10;;
15553;SDS011;7878;44.632;10.942;2023-03-11T13:03:39;2.13;;;1.38;;
15553;SDS011;7878;44.632;10.942;2023-03-11T13:16:38;1.30;;;0.95;;
15553;SDS011;7878;44.632;10.942;2023-03-11T13:21:56;3.63;;;1.10;;
15553;SDS011;7878;44.632;10.942;2023-03-11T13:40:01;5.72;;;0.70;;
15553;SDS011;7878;44.632;10.942;2023-03-11T13:42:43;2.78;;;0.80;;
15553;SDS011;7878;44.632;10.942;2023-03-11T13:45:15;0.60;;;0.60;;
15553;SDS011;7878;44.632;10.942;2023-03-11T13:47:52;2.33;;;0.82;;
15553;SDS011;7878;44.632;10.942;2023-03-11T13:50:24;1.30;;;0.70;;
15553;SDS011;7878;44.632;10.942;2023-03-11T13:52:53;0.60;;;0.60;;
15553;SDS011;7878;44.632;10.942;2023-03-11T13:55:37;0.60;;;0.60;;
15553;SDS011;7878;44.632;10.942;2023-03-11T13:58:21;0.50;;;0.50;;
15553;SDS011;7878;44.632;10.942;2023-03-11T14:00:49;0.88;;;0.88;;
15553;SDS011;7878;44.632;10.942;2023-03-11T14:03:20;4.15;;;0.70;;
15553;SDS011;7878;44.632;10.942;2023-03-11T14:05:50;0.60;;;0.60;;
15553;SDS011;7878;44.632;10.942;2023-03-11T14:08:29;0.57;;;0.57;;
15553;SDS011;7878;44.632;10.942;2023-03-11T14:13:24;0.63;;;0.60;;
15553;SDS011;7878;44.632;10.942;2023-03-11T14:18:33;2.10;;;0.60;;
15553;SDS011;7878;44.632;10.942;2023-03-11T14:21:24;1.45;;;0.70;;
15553;SDS011;7878;44.632;10.942;2023-03-11T14:23:52;0.52;;;0.50;;
15553;SDS011;7878;44.632;10.942;2023-03-11T14:26:29;1.63;;;0.57;;
15553;SDS011;7878;44.632;10.942;2023-03-11T14:28:58;0.85;;;0.70;;
15553;SDS011;7878;44.632;10.942;2023-03-11T14:31:39;0.50;;;0.50;;
15553;SDS011;7878;44.632;10.942;2023-03-11T14:39:22;1.92;;;0.63;;
15553;SDS011;7878;44.632;10.942;2023-03-11T14:41:53;1.35;;;0.70;;
15553;SDS011;7878;44.632;10.942;2023-03-11T14:44:34;0.88;;;0.85;;
15553;SDS011;7878;44.632;10.942;2023-03-11T14:49:43;0.50;;;0.50;;
15553;SDS011;7878;44.632;10.942;2023-03-11T14:52:16;0.60;;;0.60;;
15553;SDS011;7878;44.632;10.942;2023-03-11T14:54:46;0.75;;;0.60;;
15553;SDS011;7878;44.632;10.942;2023-03-11T14:59:48;0.52;;;0.52;;
15553;SDS011;7878;44.632;10.942;2023-03-11T15:05:50;0.73;;;0.70;;
15553;SDS011;7878;44.632;10.942;2023-03-11T15:08:11;5.15;;;0.90;;
15553;SDS011;7878;44.632;10.942;2023-03-11T15:10:39;2.30;;;0.75;;
15553;SDS011;7878;44.632;10.942;2023-03-11T15:13:33;0.60;;;0.60;;
15553;SDS011;7878;44.632;10.942;2023-03-11T15:16:01;1.00;;;0.60;;
15553;SDS011;7878;44.632;10.942;2023-03-11T15:18:33;0.75;;;0.60;;
15553;SDS011;7878;44.632;10.942;2023-03-11T15:21:22;2.67;;;0.60;;
15553;SDS011;7878;44.632;10.942;2023-03-11T15:26:31;0.40;;;0.40;;
15553;SDS011;7878;44.632;10.942;2023-03-11T15:29:02;0.70;;;0.70;;
15553;SDS011;7878;44.632;10.942;2023-03-11T15:31:37;2.30;;;0.60;;
15553;SDS011;7878;44.632;10.942;2023-03-11T15:42:02;0.65;;;0.60;;
15553;SDS011;7878;44.632;10.942;2023-03-11T15:44:35;1.50;;;0.70;;
15553;SDS011;7878;44.632;10.942;2023-03-11T15:47:21;1.00;;;0.80;;
15553;SDS011;7878;44.632;10.942;2023-03-11T15:49:47;0.85;;;0.47;;
15553;SDS011;7878;44.632;10.942;2023-03-11T15:52:14;0.75;;;0.70;;
15553;SDS011;7878;44.632;10.942;2023-03-11T15:54:40;2.35;;;0.60;;
15553;SDS011;7878;44.632;10.942;2023-03-11T15:57:09;0.95;;;0.70;;
15553;SDS011;7878;44.632;10.942;2023-03-11T15:59:49;0.70;;;0.60;;
15553;SDS011;7878;44.632;10.942;2023-03-11T16:02:19;1.90;;;0.90;;
15553;SDS011;7878;44.632;10.942;2023-03-11T16:04:47;1.00;;;0.68;;
15553;SDS011;7878;44.632;10.942;2023-03-11T16:07:12;0.60;;;0.60;;
15553;SDS011;7878;44.632;10.942;2023-03-11T16:09:38;1.02;;;0.80;;
15553;SDS011;7878;44.632;10.942;2023-03-11T16:12:20;0.70;;;0.60;;
15553;SDS011;7878;44.632;10.942;2023-03-11T16:14:48;1.42;;;0.80;;
15553;SDS011;7878;44.632;10.942;2023-03-11T16:17:14;2.22;;;0.70;;
15553;SDS011;7878;44.632;10.942;2023-03-11T16:19:42;0.65;;;0.65;;
15553;SDS011;7878;44.632;10.942;2023-03-11T16:22:13;2.55;;;0.82;;
15553;SDS011;7878;44.632;10.942;2023-03-11T16:24:45;3.08;;;0.85;;
15553;SDS011;7878;44.632;10.942;2023-03-11T16:27:14;3.33;;;0.70;;
15553;SDS011;7878;44.632;10.942;2023-03-11T16:29:42;1.58;;;0.50;;
15553;SDS011;7878;44.632;10.942;2023-03-11T16:32:08;3.28;;;0.80;;
15553;SDS011;7878;44.632;10.942;2023-03-11T16:34:35;1.67;;;0.80;;
15553;SDS011;7878;44.632;10.942;2023-03-11T16:37:03;0.95;;;0.65;;
15553;SDS011;7878;44.632;10.942;2023-03-11T16:39:29;1.10;;;0.80;;
15553;SDS011;7878;44.632;10.942;2023-03-11T16:41:55;1.02;;;0.70;;
15553;SDS011;7878;44.632;10.942;2023-03-11T16:44:20;0.70;;;0.70;;
15553;SDS011;7878;44.632;10.942;2023-03-11T16:46:46;2.35;;;1.13;;
15553;SDS011;7878;44.632;10.942;2023-03-11T16:49:12;1.27;;;0.80;;
15553;SDS011;7878;44.632;10.942;2023-03-11T16:51:37;4.00;;;0.98;;
15553;SDS011;7878;44.632;10.942;2023-03-11T16:54:03;1.10;;;1.00;;
15553;SDS011;7878;44.632;10.942;2023-03-11T16:56:29;1.38;;;0.93;;
15553;SDS011;7878;44.632;10.942;2023-03-11T16:58:55;23.55;;;2.17;;
15553;SDS011;7878;44.632;10.942;2023-03-11T17:01:20;7.20;;;1.45;;
15553;SDS011;7878;44.632;10.942;2023-03-11T17:03:47;3.92;;;1.45;;
15553;SDS011;7878;44.632;10.942;2023-03-11T17:06:16;2.00;;;1.30;;
15553;SDS011;7878;44.632;10.942;2023-03-11T17:08:43;3.83;;;1.27;;
15553;SDS011;7878;44.632;10.942;2023-03-11T17:11:20;3.30;;;1.60;;
15553;SDS011;7878;44.632;10.942;2023-03-11T17:13:47;2.95;;;1.52;;
15553;SDS011;7878;44.632;10.942;2023-03-11T17:16:14;1.85;;;1.10;;